Thursday, October 23, 2014
03:55 UTC
  |  Log In   |  Register Free
Airport Search:

Page Field Airport
(KFMY)

FAA data valid effective September 18, 2014 - November 13, 2014 (unless otherwise noted).

 
 
 
 
 
 
 
 
 
 
 
 
 
 

Current Aviation Weather for Page Field Airport (KFMY)

The most recent METAR observation for KFMY was updated at: 0313
METAR Summary (Translated METAR)
KFMY
230253Z AUTO 00000KT 10SM BKN055 25/22 A2993 RMK AO2 SLP137 T02500217 50004
KRSW
230253Z AUTO 00000KT 10SM BKN055 24/22 A2994 RMK AO2 SLP136 P0001 60004 T02390222 50004 TSNO
(6.5 nm SE from KFMY)
KPGD
230253Z AUTO 06007KT 10SM CLR 23/21 A2996 RMK AO2 SLP147 T02330206 51006
(21.1 nm NW from KFMY)
TAF Summary (Translated TAF)
KFMY
221730Z 2218/2318 VRB04KT P6SM VCSH SCT020 BKN080 FM222200 VRB06KT P6SM VCTS SCT030CB BKN090 FM230500 04008KT P6SM SCT015 BKN030 FM231300 04012KT P6SM SCT025 BKN035
KRSW
(6.5 nm SE from KFMY)
221730Z 2218/2318 08006KT P6SM VCSH SCT025 BKN080 FM222200 VRB06KT P6SM VCTS SCT035CB BKN090 FM230500 04007KT P6SM SCT015 BKN030 FM231400 06012KT P6SM SCT025 BKN035
  Airport Weather Conditions for KFMY

 Current Weather at FMY
77° F
Mostly Cloudy
North winds at 0.0 mph
FMY NOAA Radar

Pressure: 29.93 in
Humidity: 82%
Wind: Calm
Dew Point: 71.1°F
Visibility: 10.00 mi


Airport Weather Forecast for KFMY

Translated METAR and TAF for KFMY
Translated METAR for KFMY (0350 UTC 23 October 2014)
found at http://aviationweather.gov/adds/metars/
 
METAR text: KFMY 230253Z AUTO 00000KT 10SM BKN055 25/22 A2993 RMK AO2 SLP137 T02500217 50004
Conditions at: KFMY (FORT MYERS , FL, US) observed 0253 UTC 23 October 2014
Temperature: 25.0°C (77°F)
Dewpoint: 21.7°C (71°F) [RH = 82%]
Pressure (altimeter): 29.93 inches Hg (1013.6 mb)
[Sea-level pressure: 1013.7 mb]
Winds: calm
Visibility: 10 or more miles (16+ km)
Ceiling: 5500 feet AGL
Clouds: broken clouds at 5500 feet AGL
Weather: automated observation with no human augmentation;
there may or may not be significant weather present at this time
Translated TAF for KFMY
Forecast for: KFMY (FORT MYERS , FL, US)
TAF Text: KFMY 222325Z 2300/2324 VRB04KT P6SM VCSH SCT040 BKN080 OVC250
Forecast period: 0000 to 0200 UTC 23 October 2014
Forecast type: FROM: standard forecast or significant change
Winds: variable direction winds at 5 MPH (4 knots; 2.1 m/s)
Visibility: 6 or more miles (10+ km)
Ceiling: 8000 feet AGL
Clouds: scattered clouds at 4000 feet AGL
broken clouds at 8000 feet AGL
overcast cloud deck at 25000 feet AGL
Weather: VCSH  (showers in vicinity)
TAF Text: FM230200 05005KT P6SM SCT250
Forecast period: 0200 to 1200 UTC 23 October 2014
Forecast type: FROM: standard forecast or significant change
Winds: from the NE (50 degrees) at 6 MPH (5 knots; 2.6 m/s)
Visibility: 6 or more miles (10+ km)
Clouds: scattered clouds at 25000 feet AGL
Weather: no significant weather forecast for this period
TAF Text: FM231200 05010KT P6SM FEW250
Forecast period: 1200 to 1800 UTC 23 October 2014
Forecast type: FROM: standard forecast or significant change
Winds: from the NE (50 degrees) at 12 MPH (10 knots; 5.2 m/s)
Visibility: 6 or more miles (10+ km)
Clouds: few clouds at 25000 feet AGL
Weather: no significant weather forecast for this period
TAF Text: FM231800 08011KT P6SM FEW250
Forecast period: 1800 UTC 23 October 2014 to 0000 UTC 24 October 2014
Forecast type: FROM: standard forecast or significant change
Winds: from the E (80 degrees) at 13 MPH (11 knots; 5.7 m/s)
Visibility: 6 or more miles (10+ km)
Clouds: few clouds at 25000 feet AGL
Weather: no significant weather forecast for this period

Find All Airport Services Find A Hotel Find A Rental Car Find A Golf Course Find A Restaurant $100 Hamburger



FBO's on the Field
FBO Company Facility Photos Services Transportation Aviation Fuel Prices: Prices include tax
Catering Weather Repair Courtesy Rental Type 100LL JetA JetA+ MOGAS 8087
 
Base Operations at Page Field

Currently rated 4.8 by 2 people
FS:Avfuel
Last Updated: Oct-14
Login to update fuel prices
SS:
Contact Base Operations at Page FieldMore FBO Information
 
Add another FBO Facility Photos Catering Weather Repair Courtesy Rental Type 100LL JetA JetA+ MOGAS 8087
Services Transportation Aviation Fuel Prices: Prices include tax


model-print
model-print
model-print
model-print